sensor_id;sensor_type;location;lat;lon;timestamp;temperature;humidity
37426;DHT22;23285;50.180;7.036;2022-09-09T00:00:12;17.00;99.90
37426;DHT22;23285;50.180;7.036;2022-09-09T00:03:19;17.00;99.90
37426;DHT22;23285;50.180;7.036;2022-09-09T00:09:07;16.70;99.90
37426;DHT22;23285;50.180;7.036;2022-09-09T00:12:02;16.80;99.90
37426;DHT22;23285;50.180;7.036;2022-09-09T00:15:37;17.00;99.90
37426;DHT22;23285;50.180;7.036;2022-09-09T00:21:18;16.90;99.90
37426;DHT22;23285;50.180;7.036;2022-09-09T00:24:29;16.90;99.90
37426;DHT22;23285;50.180;7.036;2022-09-09T00:27:25;16.80;99.90
37426;DHT22;23285;50.180;7.036;2022-09-09T00:30:37;16.80;99.90
37426;DHT22;23285;50.180;7.036;2022-09-09T00:36:14;16.70;99.90
37426;DHT22;23285;50.180;7.036;2022-09-09T00:48:13;17.00;99.90
37426;DHT22;23285;50.180;7.036;2022-09-09T00:51:02;16.80;99.90
37426;DHT22;23285;50.180;7.036;2022-09-09T00:57:32;16.50;99.90
37426;DHT22;23285;50.180;7.036;2022-09-09T01:06:13;16.60;99.90
37426;DHT22;23285;50.180;7.036;2022-09-09T01:09:26;16.90;99.90
37426;DHT22;23285;50.180;7.036;2022-09-09T01:12:16;16.50;99.90
37426;DHT22;23285;50.180;7.036;2022-09-09T01:21:02;16.60;99.90
37426;DHT22;23285;50.180;7.036;2022-09-09T01:24:13;16.60;99.90
37426;DHT22;23285;50.180;7.036;2022-09-09T01:27:18;16.80;99.90
37426;DHT22;23285;50.180;7.036;2022-09-09T01:30:10;17.00;99.90
37426;DHT22;23285;50.180;7.036;2022-09-09T01:32:58;16.90;99.90
37426;DHT22;23285;50.180;7.036;2022-09-09T01:38:31;16.90;99.90
37426;DHT22;23285;50.180;7.036;2022-09-09T01:44:11;16.80;99.90
37426;DHT22;23285;50.180;7.036;2022-09-09T01:46:58;16.70;99.90
37426;DHT22;23285;50.180;7.036;2022-09-09T01:49:43;16.80;99.90
37426;DHT22;23285;50.180;7.036;2022-09-09T01:52:37;16.80;99.90
37426;DHT22;23285;50.180;7.036;2022-09-09T01:55:41;17.00;99.90
37426;DHT22;23285;50.180;7.036;2022-09-09T02:01:50;16.80;99.90
37426;DHT22;23285;50.180;7.036;2022-09-09T02:07:49;16.60;99.90
37426;DHT22;23285;50.180;7.036;2022-09-09T02:16:40;16.70;99.90
37426;DHT22;23285;50.180;7.036;2022-09-09T02:19:32;16.80;99.90
37426;DHT22;23285;50.180;7.036;2022-09-09T02:22:39;16.70;99.90
37426;DHT22;23285;50.180;7.036;2022-09-09T02:25:28;16.80;99.90
37426;DHT22;23285;50.180;7.036;2022-09-09T02:28:22;16.70;99.90
37426;DHT22;23285;50.180;7.036;2022-09-09T02:34:00;16.60;99.90
37426;DHT22;23285;50.180;7.036;2022-09-09T02:39:32;16.30;99.90
37426;DHT22;23285;50.180;7.036;2022-09-09T02:45:04;16.20;99.90
37426;DHT22;23285;50.180;7.036;2022-09-09T02:48:08;16.30;99.90
37426;DHT22;23285;50.180;7.036;2022-09-09T02:54:34;16.50;99.90
37426;DHT22;23285;50.180;7.036;2022-09-09T02:57:16;16.50;99.90
37426;DHT22;23285;50.180;7.036;2022-09-09T03:05:39;16.30;99.90
37426;DHT22;23285;50.180;7.036;2022-09-09T03:08:25;16.40;99.90
37426;DHT22;23285;50.180;7.036;2022-09-09T03:11:12;16.50;99.90
37426;DHT22;23285;50.180;7.036;2022-09-09T03:16:47;16.60;99.90
37426;DHT22;23285;50.180;7.036;2022-09-09T03:19:33;16.40;99.90
37426;DHT22;23285;50.180;7.036;2022-09-09T03:22:20;16.30;99.90
37426;DHT22;23285;50.180;7.036;2022-09-09T03:25:06;16.10;99.90
37426;DHT22;23285;50.180;7.036;2022-09-09T03:27:54;16.10;99.90
37426;DHT22;23285;50.180;7.036;2022-09-09T03:30:40;16.10;99.90
37426;DHT22;23285;50.180;7.036;2022-09-09T03:33:25;15.90;99.90
37426;DHT22;23285;50.180;7.036;2022-09-09T03:36:11;16.10;99.90
37426;DHT22;23285;50.180;7.036;2022-09-09T03:41:44;16.40;99.90
37426;DHT22;23285;50.180;7.036;2022-09-09T03:47:17;16.40;99.90
37426;DHT22;23285;50.180;7.036;2022-09-09T03:50:07;16.30;99.90
37426;DHT22;23285;50.180;7.036;2022-09-09T03:52:54;16.10;99.90
37426;DHT22;23285;50.180;7.036;2022-09-09T03:55:45;16.20;99.90
37426;DHT22;23285;50.180;7.036;2022-09-09T03:58:30;16.20;99.90
37426;DHT22;23285;50.180;7.036;2022-09-09T04:01:22;16.40;99.90
37426;DHT22;23285;50.180;7.036;2022-09-09T04:04:07;16.50;99.90
37426;DHT22;23285;50.180;7.036;2022-09-09T04:06:54;16.60;99.90
37426;DHT22;23285;50.180;7.036;2022-09-09T04:12:24;16.20;99.90
37426;DHT22;23285;50.180;7.036;2022-09-09T04:15:10;16.20;99.90
37426;DHT22;23285;50.180;7.036;2022-09-09T04:17:57;15.90;99.90
37426;DHT22;23285;50.180;7.036;2022-09-09T04:20:42;16.30;99.90
37426;DHT22;23285;50.180;7.036;2022-09-09T04:23:28;16.20;99.90
37426;DHT22;23285;50.180;7.036;2022-09-09T04:29:04;16.60;99.90
37426;DHT22;23285;50.180;7.036;2022-09-09T04:31:49;16.60;99.90
37426;DHT22;23285;50.180;7.036;2022-09-09T04:34:34;16.30;99.90
37426;DHT22;23285;50.180;7.036;2022-09-09T04:37:19;16.30;99.90
37426;DHT22;23285;50.180;7.036;2022-09-09T04:40:05;16.00;99.90
37426;DHT22;23285;50.180;7.036;2022-09-09T04:42:53;16.00;99.90
37426;DHT22;23285;50.180;7.036;2022-09-09T04:45:38;16.30;99.90
37426;DHT22;23285;50.180;7.036;2022-09-09T04:51:13;16.00;99.90
37426;DHT22;23285;50.180;7.036;2022-09-09T04:53:59;16.10;99.90
37426;DHT22;23285;50.180;7.036;2022-09-09T04:56:44;16.30;99.90
37426;DHT22;23285;50.180;7.036;2022-09-09T04:59:30;16.40;99.90
37426;DHT22;23285;50.180;7.036;2022-09-09T05:02:17;16.40;99.90
37426;DHT22;23285;50.180;7.036;2022-09-09T05:05:03;16.40;99.90
37426;DHT22;23285;50.180;7.036;2022-09-09T05:07:48;16.30;99.90
37426;DHT22;23285;50.180;7.036;2022-09-09T05:10:37;16.10;99.90
37426;DHT22;23285;50.180;7.036;2022-09-09T05:13:23;16.00;99.90
37426;DHT22;23285;50.180;7.036;2022-09-09T05:16:09;16.00;99.90
37426;DHT22;23285;50.180;7.036;2022-09-09T05:18:56;16.00;99.90
37426;DHT22;23285;50.180;7.036;2022-09-09T05:21:45;16.00;99.90
37426;DHT22;23285;50.180;7.036;2022-09-09T05:24:32;16.20;99.90
37426;DHT22;23285;50.180;7.036;2022-09-09T05:27:18;16.20;99.90
37426;DHT22;23285;50.180;7.036;2022-09-09T05:30:08;16.00;99.90
37426;DHT22;23285;50.180;7.036;2022-09-09T05:32:56;16.00;99.90
37426;DHT22;23285;50.180;7.036;2022-09-09T05:35:41;16.00;99.90
37426;DHT22;23285;50.180;7.036;2022-09-09T05:38:26;16.20;99.90
37426;DHT22;23285;50.180;7.036;2022-09-09T05:43:58;16.20;99.90
37426;DHT22;23285;50.180;7.036;2022-09-09T05:46:46;16.20;99.90
37426;DHT22;23285;50.180;7.036;2022-09-09T05:55:04;16.20;99.90
37426;DHT22;23285;50.180;7.036;2022-09-09T05:57:49;16.10;99.90
37426;DHT22;23285;50.180;7.036;2022-09-09T06:00:36;16.00;99.90
37426;DHT22;23285;50.180;7.036;2022-09-09T06:08:57;16.40;99.90
37426;DHT22;23285;50.180;7.036;2022-09-09T06:14:32;16.30;99.90
37426;DHT22;23285;50.180;7.036;2022-09-09T06:20:05;16.30;99.90
37426;DHT22;23285;50.180;7.036;2022-09-09T06:22:51;16.30;99.90
37426;DHT22;23285;50.180;7.036;2022-09-09T06:25:36;16.00;99.90
37426;DHT22;23285;50.180;7.036;2022-09-09T06:31:11;16.00;99.90
37426;DHT22;23285;50.180;7.036;2022-09-09T06:33:58;16.00;99.90
37426;DHT22;23285;50.180;7.036;2022-09-09T06:48:01;15.90;99.90
37426;DHT22;23285;50.180;7.036;2022-09-09T06:50:47;16.10;99.90
37426;DHT22;23285;50.180;7.036;2022-09-09T06:53:34;16.10;99.90
37426;DHT22;23285;50.180;7.036;2022-09-09T06:59:12;16.30;99.90
37426;DHT22;23285;50.180;7.036;2022-09-09T07:01:57;16.10;99.90
37426;DHT22;23285;50.180;7.036;2022-09-09T07:04:43;16.20;99.90
37426;DHT22;23285;50.180;7.036;2022-09-09T07:07:29;16.30;99.90
37426;DHT22;23285;50.180;7.036;2022-09-09T07:10:15;16.30;99.90
37426;DHT22;23285;50.180;7.036;2022-09-09T07:13:02;16.30;99.90
37426;DHT22;23285;50.180;7.036;2022-09-09T07:15:47;16.00;99.90
37426;DHT22;23285;50.180;7.036;2022-09-09T07:21:19;16.20;99.90
37426;DHT22;23285;50.180;7.036;2022-09-09T07:24:06;16.20;99.90
37426;DHT22;23285;50.180;7.036;2022-09-09T07:26:52;16.20;99.90
37426;DHT22;23285;50.180;7.036;2022-09-09T07:29:37;16.40;99.90
37426;DHT22;23285;50.180;7.036;2022-09-09T07:32:23;16.40;99.90
37426;DHT22;23285;50.180;7.036;2022-09-09T07:35:08;16.40;99.90
37426;DHT22;23285;50.180;7.036;2022-09-09T07:40:39;16.50;99.90
37426;DHT22;23285;50.180;7.036;2022-09-09T07:46:13;16.60;99.90
37426;DHT22;23285;50.180;7.036;2022-09-09T07:51:48;16.50;99.90
37426;DHT22;23285;50.180;7.036;2022-09-09T07:54:36;16.50;99.90
37426;DHT22;23285;50.180;7.036;2022-09-09T07:57:24;16.50;99.90
37426;DHT22;23285;50.180;7.036;2022-09-09T08:03:02;16.50;99.90
37426;DHT22;23285;50.180;7.036;2022-09-09T08:05:48;16.60;99.90
37426;DHT22;23285;50.180;7.036;2022-09-09T08:08:35;16.60;99.90
37426;DHT22;23285;50.180;7.036;2022-09-09T08:11:23;16.80;99.90
37426;DHT22;23285;50.180;7.036;2022-09-09T08:14:10;17.00;99.90
37426;DHT22;23285;50.180;7.036;2022-09-09T08:16:56;17.00;99.90
37426;DHT22;23285;50.180;7.036;2022-09-09T08:19:44;16.80;99.90
37426;DHT22;23285;50.180;7.036;2022-09-09T08:22:35;16.90;99.90
37426;DHT22;23285;50.180;7.036;2022-09-09T08:28:07;16.80;99.90
37426;DHT22;23285;50.180;7.036;2022-09-09T08:30:54;16.90;99.90
37426;DHT22;23285;50.180;7.036;2022-09-09T08:33:40;16.80;99.90
37426;DHT22;23285;50.180;7.036;2022-09-09T08:39:16;16.90;99.90
37426;DHT22;23285;50.180;7.036;2022-09-09T08:48:16;16.80;99.90
37426;DHT22;23285;50.180;7.036;2022-09-09T08:51:03;17.00;99.90
37426;DHT22;23285;50.180;7.036;2022-09-09T08:53:55;17.00;99.90
37426;DHT22;23285;50.180;7.036;2022-09-09T08:59:29;17.00;99.90
37426;DHT22;23285;50.180;7.036;2022-09-09T09:02:24;16.90;99.90
37426;DHT22;23285;50.180;7.036;2022-09-09T09:05:37;17.20;99.90
37426;DHT22;23285;50.180;7.036;2022-09-09T09:08:36;17.30;99.90
37426;DHT22;23285;50.180;7.036;2022-09-09T09:14:25;17.40;99.90
37426;DHT22;23285;50.180;7.036;2022-09-09T09:17:21;17.70;99.90
37426;DHT22;23285;50.180;7.036;2022-09-09T09:20:13;17.60;99.90
37426;DHT22;23285;50.180;7.036;2022-09-09T09:23:01;17.60;99.90
37426;DHT22;23285;50.180;7.036;2022-09-09T09:25:48;17.60;99.90
37426;DHT22;23285;50.180;7.036;2022-09-09T09:28:36;17.60;99.90
37426;DHT22;23285;50.180;7.036;2022-09-09T09:31:28;17.60;99.90
37426;DHT22;23285;50.180;7.036;2022-09-09T09:34:13;17.40;99.90
37426;DHT22;23285;50.180;7.036;2022-09-09T09:37:00;17.60;99.90
37426;DHT22;23285;50.180;7.036;2022-09-09T09:39:51;17.80;99.90
37426;DHT22;23285;50.180;7.036;2022-09-09T09:42:38;17.80;99.90
37426;DHT22;23285;50.180;7.036;2022-09-09T09:48:19;17.50;99.90
37426;DHT22;23285;50.180;7.036;2022-09-09T09:54:14;16.90;99.90
37426;DHT22;23285;50.180;7.036;2022-09-09T10:00:15;16.70;99.90
37426;DHT22;23285;50.180;7.036;2022-09-09T10:06:06;17.10;99.90
37426;DHT22;23285;50.180;7.036;2022-09-09T10:08:51;16.90;99.90
37426;DHT22;23285;50.180;7.036;2022-09-09T10:11:46;17.20;99.90
37426;DHT22;23285;50.180;7.036;2022-09-09T10:27:11;17.40;99.90
37426;DHT22;23285;50.180;7.036;2022-09-09T10:30:04;17.40;99.90
37426;DHT22;23285;50.180;7.036;2022-09-09T10:42:14;18.40;99.90
37426;DHT22;23285;50.180;7.036;2022-09-09T10:45:17;18.60;99.90
37426;DHT22;23285;50.180;7.036;2022-09-09T10:48:19;19.10;99.90
37426;DHT22;23285;50.180;7.036;2022-09-09T10:57:18;19.10;99.90
37426;DHT22;23285;50.180;7.036;2022-09-09T11:00:18;19.10;99.90
37426;DHT22;23285;50.180;7.036;2022-09-09T11:03:04;19.30;99.90
37426;DHT22;23285;50.180;7.036;2022-09-09T11:05:59;19.40;99.90
37426;DHT22;23285;50.180;7.036;2022-09-09T11:08:46;19.50;99.90
37426;DHT22;23285;50.180;7.036;2022-09-09T11:14:42;19.50;99.90
37426;DHT22;23285;50.180;7.036;2022-09-09T11:17:49;19.60;99.90
37426;DHT22;23285;50.180;7.036;2022-09-09T11:20:35;19.50;99.90
37426;DHT22;23285;50.180;7.036;2022-09-09T11:23:40;19.40;99.90
37426;DHT22;23285;50.180;7.036;2022-09-09T11:26:40;19.40;99.90
37426;DHT22;23285;50.180;7.036;2022-09-09T11:38:47;19.80;99.90
37426;DHT22;23285;50.180;7.036;2022-09-09T11:41:35;19.80;99.90
37426;DHT22;23285;50.180;7.036;2022-09-09T11:47:28;19.50;99.90
37426;DHT22;23285;50.180;7.036;2022-09-09T11:53:06;19.20;99.90
37426;DHT22;23285;50.180;7.036;2022-09-09T11:56:11;19.10;99.90
37426;DHT22;23285;50.180;7.036;2022-09-09T11:59:16;19.00;99.90
37426;DHT22;23285;50.180;7.036;2022-09-09T12:02:27;18.70;99.90
37426;DHT22;23285;50.180;7.036;2022-09-09T12:10:58;19.90;99.90
37426;DHT22;23285;50.180;7.036;2022-09-09T12:19:30;20.10;99.90
37426;DHT22;23285;50.180;7.036;2022-09-09T12:22:19;20.10;99.90
37426;DHT22;23285;50.180;7.036;2022-09-09T12:31:50;20.30;99.90
37426;DHT22;23285;50.180;7.036;2022-09-09T12:34:48;20.40;99.90
37426;DHT22;23285;50.180;7.036;2022-09-09T12:37:39;20.90;99.90
37426;DHT22;23285;50.180;7.036;2022-09-09T12:46:11;20.90;99.90
37426;DHT22;23285;50.180;7.036;2022-09-09T12:48:59;20.80;99.90
37426;DHT22;23285;50.180;7.036;2022-09-09T12:51:44;20.50;99.90
37426;DHT22;23285;50.180;7.036;2022-09-09T12:54:29;20.50;99.90
37426;DHT22;23285;50.180;7.036;2022-09-09T12:57:14;20.50;99.90
37426;DHT22;23285;50.180;7.036;2022-09-09T13:00:12;20.60;99.90
37426;DHT22;23285;50.180;7.036;2022-09-09T13:03:00;20.10;99.90
37426;DHT22;23285;50.180;7.036;2022-09-09T13:05:47;20.50;99.90
37426;DHT22;23285;50.180;7.036;2022-09-09T13:08:32;20.80;99.90
37426;DHT22;23285;50.180;7.036;2022-09-09T13:11:24;21.20;99.90
37426;DHT22;23285;50.180;7.036;2022-09-09T13:17:19;21.80;99.90
37426;DHT22;23285;50.180;7.036;2022-09-09T13:20:05;21.80;99.90
37426;DHT22;23285;50.180;7.036;2022-09-09T13:22:52;22.20;99.90
37426;DHT22;23285;50.180;7.036;2022-09-09T13:25:38;21.70;99.90
37426;DHT22;23285;50.180;7.036;2022-09-09T13:28:26;21.40;99.90
37426;DHT22;23285;50.180;7.036;2022-09-09T13:31:35;21.20;99.90
37426;DHT22;23285;50.180;7.036;2022-09-09T13:34:31;20.80;99.90
37426;DHT22;23285;50.180;7.036;2022-09-09T13:40:17;20.50;99.90
37426;DHT22;23285;50.180;7.036;2022-09-09T13:43:03;19.70;99.90
37426;DHT22;23285;50.180;7.036;2022-09-09T13:45:55;19.10;99.90
37426;DHT22;23285;50.180;7.036;2022-09-09T13:48:40;18.60;99.90
37426;DHT22;23285;50.180;7.036;2022-09-09T13:54:21;18.20;99.90
37426;DHT22;23285;50.180;7.036;2022-09-09T13:57:24;17.90;99.90
37426;DHT22;23285;50.180;7.036;2022-09-09T14:00:11;17.40;99.90
37426;DHT22;23285;50.180;7.036;2022-09-09T14:02:57;16.90;99.90
37426;DHT22;23285;50.180;7.036;2022-09-09T14:05:44;17.10;99.90
37426;DHT22;23285;50.180;7.036;2022-09-09T14:11:21;17.40;99.90
37426;DHT22;23285;50.180;7.036;2022-09-09T14:14:07;17.80;99.90
37426;DHT22;23285;50.180;7.036;2022-09-09T14:16:51;18.30;99.90
37426;DHT22;23285;50.180;7.036;2022-09-09T14:19:36;18.70;99.90
37426;DHT22;23285;50.180;7.036;2022-09-09T14:22:22;19.00;99.90
37426;DHT22;23285;50.180;7.036;2022-09-09T14:25:08;19.60;99.90
37426;DHT22;23285;50.180;7.036;2022-09-09T14:27:53;19.80;99.90
37426;DHT22;23285;50.180;7.036;2022-09-09T14:30:39;20.20;99.90
37426;DHT22;23285;50.180;7.036;2022-09-09T14:33:24;20.00;99.90
37426;DHT22;23285;50.180;7.036;2022-09-09T14:36:10;20.10;99.90
37426;DHT22;23285;50.180;7.036;2022-09-09T14:38:55;20.30;99.90
37426;DHT22;23285;50.180;7.036;2022-09-09T14:41:40;20.30;99.90
37426;DHT22;23285;50.180;7.036;2022-09-09T14:44:25;19.50;99.90
37426;DHT22;23285;50.180;7.036;2022-09-09T14:47:11;19.50;99.90
37426;DHT22;23285;50.180;7.036;2022-09-09T14:49:56;19.30;99.90
37426;DHT22;23285;50.180;7.036;2022-09-09T14:52:41;18.90;99.90
37426;DHT22;23285;50.180;7.036;2022-09-09T14:55:26;18.70;99.90
37426;DHT22;23285;50.180;7.036;2022-09-09T14:58:13;18.40;99.90
37426;DHT22;23285;50.180;7.036;2022-09-09T15:01:06;18.60;99.90
37426;DHT22;23285;50.180;7.036;2022-09-09T15:03:53;18.60;99.90
37426;DHT22;23285;50.180;7.036;2022-09-09T15:06:38;18.00;99.90
37426;DHT22;23285;50.180;7.036;2022-09-09T15:09:23;17.80;99.90
37426;DHT22;23285;50.180;7.036;2022-09-09T15:14:54;18.00;99.90
37426;DHT22;23285;50.180;7.036;2022-09-09T15:23:10;17.60;99.90
37426;DHT22;23285;50.180;7.036;2022-09-09T15:25:56;17.70;99.90
37426;DHT22;23285;50.180;7.036;2022-09-09T15:31:30;17.60;99.90
37426;DHT22;23285;50.180;7.036;2022-09-09T15:34:15;17.20;99.90
37426;DHT22;23285;50.180;7.036;2022-09-09T15:39:45;17.10;99.90
37426;DHT22;23285;50.180;7.036;2022-09-09T15:45:16;16.80;99.90
37426;DHT22;23285;50.180;7.036;2022-09-09T15:48:04;16.90;99.90
37426;DHT22;23285;50.180;7.036;2022-09-09T15:51:01;17.00;99.90
37426;DHT22;23285;50.180;7.036;2022-09-09T15:53:48;17.10;99.90
37426;DHT22;23285;50.180;7.036;2022-09-09T15:56:33;17.20;99.90
37426;DHT22;23285;50.180;7.036;2022-09-09T15:59:19;17.40;99.90
37426;DHT22;23285;50.180;7.036;2022-09-09T16:02:04;17.60;99.90
37426;DHT22;23285;50.180;7.036;2022-09-09T16:04:49;17.60;99.90
37426;DHT22;23285;50.180;7.036;2022-09-09T16:07:34;17.70;99.90
37426;DHT22;23285;50.180;7.036;2022-09-09T16:10:20;17.60;99.90
37426;DHT22;23285;50.180;7.036;2022-09-09T16:18:46;17.60;99.90
37426;DHT22;23285;50.180;7.036;2022-09-09T16:24:19;17.60;99.90
37426;DHT22;23285;50.180;7.036;2022-09-09T16:27:04;17.90;99.90
37426;DHT22;23285;50.180;7.036;2022-09-09T16:29:49;17.70;99.90
37426;DHT22;23285;50.180;7.036;2022-09-09T16:35:20;17.40;99.90
37426;DHT22;23285;50.180;7.036;2022-09-09T16:38:06;17.60;99.90
37426;DHT22;23285;50.180;7.036;2022-09-09T16:40:59;17.50;99.90
37426;DHT22;23285;50.180;7.036;2022-09-09T16:43:45;17.60;99.90
37426;DHT22;23285;50.180;7.036;2022-09-09T16:46:31;17.40;99.90
37426;DHT22;23285;50.180;7.036;2022-09-09T16:49:16;17.50;99.90
37426;DHT22;23285;50.180;7.036;2022-09-09T16:52:01;17.70;99.90
37426;DHT22;23285;50.180;7.036;2022-09-09T16:54:46;17.70;99.90
37426;DHT22;23285;50.180;7.036;2022-09-09T16:57:31;17.60;99.90
37426;DHT22;23285;50.180;7.036;2022-09-09T17:00:16;17.40;99.90
37426;DHT22;23285;50.180;7.036;2022-09-09T17:03:02;17.30;99.90
37426;DHT22;23285;50.180;7.036;2022-09-09T17:05:47;17.40;99.90
37426;DHT22;23285;50.180;7.036;2022-09-09T17:08:32;17.60;99.90
37426;DHT22;23285;50.180;7.036;2022-09-09T17:11:18;17.60;99.90
37426;DHT22;23285;50.180;7.036;2022-09-09T17:14:04;17.60;99.90
37426;DHT22;23285;50.180;7.036;2022-09-09T17:16:50;17.60;99.90
37426;DHT22;23285;50.180;7.036;2022-09-09T17:22:20;17.60;99.90
37426;DHT22;23285;50.180;7.036;2022-09-09T17:27:50;17.30;99.90
37426;DHT22;23285;50.180;7.036;2022-09-09T17:33:21;17.10;99.90
37426;DHT22;23285;50.180;7.036;2022-09-09T17:36:21;17.00;99.90
37426;DHT22;23285;50.180;7.036;2022-09-09T17:41:52;17.30;99.90
37426;DHT22;23285;50.180;7.036;2022-09-09T17:44:39;17.10;99.90
37426;DHT22;23285;50.180;7.036;2022-09-09T17:50:10;17.00;99.90
37426;DHT22;23285;50.180;7.036;2022-09-09T17:58:28;16.90;99.90
37426;DHT22;23285;50.180;7.036;2022-09-09T18:04:01;16.90;99.90
37426;DHT22;23285;50.180;7.036;2022-09-09T18:06:49;16.90;99.90
37426;DHT22;23285;50.180;7.036;2022-09-09T18:09:34;16.90;99.90
37426;DHT22;23285;50.180;7.036;2022-09-09T18:12:19;16.50;99.90
37426;DHT22;23285;50.180;7.036;2022-09-09T18:17:50;16.30;99.90
37426;DHT22;23285;50.180;7.036;2022-09-09T18:20:35;16.10;99.90
37426;DHT22;23285;50.180;7.036;2022-09-09T18:23:20;16.20;99.90
37426;DHT22;23285;50.180;7.036;2022-09-09T18:26:10;16.20;99.90
37426;DHT22;23285;50.180;7.036;2022-09-09T18:28:57;16.40;99.90
37426;DHT22;23285;50.180;7.036;2022-09-09T18:31:43;16.10;99.90
37426;DHT22;23285;50.180;7.036;2022-09-09T18:34:28;16.10;99.90
37426;DHT22;23285;50.180;7.036;2022-09-09T18:37:13;16.40;99.90
37426;DHT22;23285;50.180;7.036;2022-09-09T18:39:59;16.40;99.90
37426;DHT22;23285;50.180;7.036;2022-09-09T18:42:46;16.20;99.90
37426;DHT22;23285;50.180;7.036;2022-09-09T18:45:34;16.10;99.90
37426;DHT22;23285;50.180;7.036;2022-09-09T18:48:21;16.00;99.90
37426;DHT22;23285;50.180;7.036;2022-09-09T18:51:08;16.00;99.90
37426;DHT22;23285;50.180;7.036;2022-09-09T18:53:59;15.90;99.90
37426;DHT22;23285;50.180;7.036;2022-09-09T18:56:46;16.00;99.90
37426;DHT22;23285;50.180;7.036;2022-09-09T19:05:02;15.90;99.90
37426;DHT22;23285;50.180;7.036;2022-09-09T19:07:47;16.10;99.90
37426;DHT22;23285;50.180;7.036;2022-09-09T19:10:35;16.20;99.90
37426;DHT22;23285;50.180;7.036;2022-09-09T19:13:20;16.20;99.90
37426;DHT22;23285;50.180;7.036;2022-09-09T19:16:07;16.10;99.90
37426;DHT22;23285;50.180;7.036;2022-09-09T19:18:52;15.90;99.90
37426;DHT22;23285;50.180;7.036;2022-09-09T19:21:38;16.00;99.90
37426;DHT22;23285;50.180;7.036;2022-09-09T19:24:27;16.30;99.90
37426;DHT22;23285;50.180;7.036;2022-09-09T19:29:57;16.10;99.90
37426;DHT22;23285;50.180;7.036;2022-09-09T19:32:42;16.30;99.90
37426;DHT22;23285;50.180;7.036;2022-09-09T19:35:27;16.10;99.90
37426;DHT22;23285;50.180;7.036;2022-09-09T19:38:12;16.10;99.90
37426;DHT22;23285;50.180;7.036;2022-09-09T19:41:10;15.80;99.90
37426;DHT22;23285;50.180;7.036;2022-09-09T19:44:00;15.70;99.90
37426;DHT22;23285;50.180;7.036;2022-09-09T19:46:45;15.70;99.90
37426;DHT22;23285;50.180;7.036;2022-09-09T19:55:03;15.90;99.90
37426;DHT22;23285;50.180;7.036;2022-09-09T20:03:19;16.00;99.90
37426;DHT22;23285;50.180;7.036;2022-09-09T20:06:06;16.00;99.90
37426;DHT22;23285;50.180;7.036;2022-09-09T20:11:37;16.10;99.90
37426;DHT22;23285;50.180;7.036;2022-09-09T20:14:22;16.10;99.90
37426;DHT22;23285;50.180;7.036;2022-09-09T20:17:07;16.00;99.90
37426;DHT22;23285;50.180;7.036;2022-09-09T20:19:53;16.10;99.90
37426;DHT22;23285;50.180;7.036;2022-09-09T20:22:38;16.00;99.90
37426;DHT22;23285;50.180;7.036;2022-09-09T20:25:23;16.00;99.90
37426;DHT22;23285;50.180;7.036;2022-09-09T20:28:08;16.00;99.90
37426;DHT22;23285;50.180;7.036;2022-09-09T20:30:53;16.10;99.90
37426;DHT22;23285;50.180;7.036;2022-09-09T20:36:28;16.00;99.90
37426;DHT22;23285;50.180;7.036;2022-09-09T20:42:00;15.90;99.90
37426;DHT22;23285;50.180;7.036;2022-09-09T20:44:46;15.90;99.90
37426;DHT22;23285;50.180;7.036;2022-09-09T20:47:31;15.90;99.90
37426;DHT22;23285;50.180;7.036;2022-09-09T20:50:16;16.00;99.90
37426;DHT22;23285;50.180;7.036;2022-09-09T20:53:02;15.90;99.90
37426;DHT22;23285;50.180;7.036;2022-09-09T20:55:47;16.00;99.90
37426;DHT22;23285;50.180;7.036;2022-09-09T20:58:35;15.90;99.90
37426;DHT22;23285;50.180;7.036;2022-09-09T21:01:20;15.70;99.90
37426;DHT22;23285;50.180;7.036;2022-09-09T21:04:06;15.50;99.90
37426;DHT22;23285;50.180;7.036;2022-09-09T21:09:37;15.60;99.90
37426;DHT22;23285;50.180;7.036;2022-09-09T21:12:23;15.70;99.90
37426;DHT22;23285;50.180;7.036;2022-09-09T21:15:08;15.70;99.90
37426;DHT22;23285;50.180;7.036;2022-09-09T21:20:39;15.90;99.90
37426;DHT22;23285;50.180;7.036;2022-09-09T21:23:27;16.00;99.90
37426;DHT22;23285;50.180;7.036;2022-09-09T21:26:13;15.70;99.90
37426;DHT22;23285;50.180;7.036;2022-09-09T21:28:58;15.80;99.90
37426;DHT22;23285;50.180;7.036;2022-09-09T21:31:44;15.80;99.90
37426;DHT22;23285;50.180;7.036;2022-09-09T21:37:14;16.00;99.90
37426;DHT22;23285;50.180;7.036;2022-09-09T21:39:59;16.10;99.90
37426;DHT22;23285;50.180;7.036;2022-09-09T21:42:44;15.90;99.90
37426;DHT22;23285;50.180;7.036;2022-09-09T21:45:30;15.90;99.90
37426;DHT22;23285;50.180;7.036;2022-09-09T21:48:16;15.70;99.90
37426;DHT22;23285;50.180;7.036;2022-09-09T21:51:06;15.60;99.90
37426;DHT22;23285;50.180;7.036;2022-09-09T21:53:55;15.80;99.90
37426;DHT22;23285;50.180;7.036;2022-09-09T21:56:40;15.60;99.90
37426;DHT22;23285;50.180;7.036;2022-09-09T22:04:57;15.80;99.90
37426;DHT22;23285;50.180;7.036;2022-09-09T22:07:42;15.80;99.90
37426;DHT22;23285;50.180;7.036;2022-09-09T22:10:27;15.90;99.90
37426;DHT22;23285;50.180;7.036;2022-09-09T22:13:14;15.70;99.90
37426;DHT22;23285;50.180;7.036;2022-09-09T22:16:02;15.70;99.90
37426;DHT22;23285;50.180;7.036;2022-09-09T22:18:55;15.90;99.90
37426;DHT22;23285;50.180;7.036;2022-09-09T22:24:26;15.80;99.90
37426;DHT22;23285;50.180;7.036;2022-09-09T22:27:12;15.70;99.90
37426;DHT22;23285;50.180;7.036;2022-09-09T22:29:57;15.50;99.90
37426;DHT22;23285;50.180;7.036;2022-09-09T22:35:27;15.70;99.90
37426;DHT22;23285;50.180;7.036;2022-09-09T22:38:12;15.20;99.90
37426;DHT22;23285;50.180;7.036;2022-09-09T22:40:57;15.30;99.90
37426;DHT22;23285;50.180;7.036;2022-09-09T22:43:43;15.30;99.90
37426;DHT22;23285;50.180;7.036;2022-09-09T22:46:28;15.30;99.90
37426;DHT22;23285;50.180;7.036;2022-09-09T22:49:13;15.30;99.90
37426;DHT22;23285;50.180;7.036;2022-09-09T22:51:58;15.50;99.90
37426;DHT22;23285;50.180;7.036;2022-09-09T22:54:43;15.50;99.90
37426;DHT22;23285;50.180;7.036;2022-09-09T22:57:29;15.70;99.90
37426;DHT22;23285;50.180;7.036;2022-09-09T23:00:14;15.40;99.90
37426;DHT22;23285;50.180;7.036;2022-09-09T23:03:00;15.60;99.90
37426;DHT22;23285;50.180;7.036;2022-09-09T23:05:52;15.60;99.90
37426;DHT22;23285;50.180;7.036;2022-09-09T23:08:39;15.70;99.90
37426;DHT22;23285;50.180;7.036;2022-09-09T23:11:27;15.60;99.90
37426;DHT22;23285;50.180;7.036;2022-09-09T23:14:13;15.50;99.90
37426;DHT22;23285;50.180;7.036;2022-09-09T23:16:58;15.70;99.90
37426;DHT22;23285;50.180;7.036;2022-09-09T23:19:44;15.80;99.90
37426;DHT22;23285;50.180;7.036;2022-09-09T23:22:29;15.80;99.90
37426;DHT22;23285;50.180;7.036;2022-09-09T23:28:00;15.50;99.90
37426;DHT22;23285;50.180;7.036;2022-09-09T23:30:45;15.70;99.90